createdAt,value
2023-05-21T00:00:18.135Z,11.43
2023-05-21T00:02:46.139Z,10.70
2023-05-21T00:05:15.526Z,11.65
2023-05-21T00:07:43.513Z,11.43
2023-05-21T00:10:11.976Z,11.63
2023-05-21T00:12:40.285Z,11.75
2023-05-21T00:15:09.398Z,11.13
2023-05-21T00:17:40.120Z,12.13
2023-05-21T00:20:10.067Z,14.02
2023-05-21T00:22:38.004Z,11.73
2023-05-21T00:25:06.507Z,11.95
2023-05-21T00:27:34.421Z,12.93
2023-05-21T00:30:02.505Z,11.88
2023-05-21T00:32:30.853Z,12.05
2023-05-21T00:35:00.154Z,12.25
2023-05-21T00:37:29.859Z,12.40
2023-05-21T00:39:58.446Z,11.85
2023-05-21T00:42:27.440Z,11.63
2023-05-21T00:44:55.377Z,12.23
2023-05-21T00:47:23.708Z,11.50
2023-05-21T00:49:53.376Z,12.10
2023-05-21T00:52:23.161Z,12.07
2023-05-21T00:54:52.035Z,10.93
2023-05-21T00:57:21.703Z,11.45
2023-05-21T00:59:53.089Z,11.57
2023-05-21T01:02:24.183Z,10.93
2023-05-21T01:04:52.914Z,10.85
2023-05-21T01:07:22.148Z,11.23
2023-05-21T01:09:50.175Z,10.93
2023-05-21T01:12:19.998Z,11.25
2023-05-21T01:14:49.201Z,11.63
2023-05-21T01:17:17.704Z,11.27
2023-05-21T01:19:47.949Z,11.02
2023-05-21T01:22:18.782Z,11.25
2023-05-21T01:24:51.120Z,11.25
2023-05-21T01:27:19.988Z,12.63
2023-05-21T01:29:47.932Z,11.85
2023-05-21T01:32:24.651Z,11.55
2023-05-21T01:35:00.802Z,12.73
2023-05-21T01:37:32.584Z,11.93
2023-05-21T01:40:09.899Z,12.60
2023-05-21T01:42:40.084Z,12.35
2023-05-21T01:45:09.619Z,11.75
2023-05-21T01:47:38.631Z,15.38
2023-05-21T01:50:08.092Z,12.68
2023-05-21T01:52:36.944Z,11.90
2023-05-21T01:55:06.907Z,12.55
2023-05-21T01:57:34.801Z,13.70
2023-05-21T02:00:02.815Z,12.05
2023-05-21T02:02:31.004Z,12.93
2023-05-21T02:04:58.918Z,12.35
2023-05-21T02:07:28.922Z,11.95
2023-05-21T02:09:56.808Z,12.65
2023-05-21T02:12:26.027Z,13.30
2023-05-21T02:14:53.902Z,13.27
2023-05-21T02:17:21.878Z,13.48
2023-05-21T02:19:49.790Z,13.80
2023-05-21T02:22:17.711Z,13.25
2023-05-21T02:24:45.791Z,13.27
2023-05-21T02:27:13.996Z,12.93
2023-05-21T02:29:43.255Z,12.68
2023-05-21T02:32:11.777Z,13.85
2023-05-21T02:34:42.420Z,13.63
2023-05-21T02:37:10.756Z,14.30
2023-05-21T02:39:38.748Z,12.77
2023-05-21T02:42:07.163Z,13.60
2023-05-21T02:44:35.858Z,13.98
2023-05-21T02:47:05.514Z,14.65
2023-05-21T02:49:33.691Z,13.77
2023-05-21T02:52:01.541Z,13.30
2023-05-21T02:54:29.436Z,14.35
2023-05-21T02:56:57.719Z,13.80
2023-05-21T02:59:25.740Z,14.10
2023-05-21T03:01:53.727Z,14.45
2023-05-21T03:04:23.097Z,14.70
2023-05-21T03:06:54.861Z,14.52
2023-05-21T03:09:22.943Z,14.23
2023-05-21T03:11:51.676Z,14.55
2023-05-21T03:14:19.565Z,14.98
2023-05-21T03:16:49.232Z,15.10
2023-05-21T03:19:19.097Z,14.68
2023-05-21T03:21:49.048Z,16.25
2023-05-21T03:24:17.341Z,15.32
2023-05-21T03:26:45.594Z,15.35
2023-05-21T03:29:13.614Z,14.98
2023-05-21T03:31:42.517Z,15.05
2023-05-21T03:34:12.823Z,15.25
2023-05-21T03:36:41.151Z,17.08
2023-05-21T03:39:10.596Z,16.30
2023-05-21T03:41:39.363Z,15.90
2023-05-21T03:44:11.441Z,15.93
2023-05-21T03:46:54.118Z,16.80
2023-05-21T03:49:30.503Z,15.75
2023-05-21T03:51:59.578Z,15.60
2023-05-21T03:54:29.681Z,14.70
2023-05-21T03:57:02.441Z,16.40
2023-05-21T03:59:30.367Z,16.17
2023-05-21T04:01:59.482Z,17.23
2023-05-21T04:04:29.439Z,16.80
2023-05-21T04:06:57.752Z,16.33
2023-05-21T04:09:25.637Z,16.27
2023-05-21T04:11:55.032Z,16.15
2023-05-21T04:14:23.430Z,17.20
2023-05-21T04:16:53.334Z,16.48
2023-05-21T04:19:22.396Z,16.42
2023-05-21T04:21:50.934Z,16.45
2023-05-21T04:24:19.721Z,16.17
2023-05-21T04:27:01.634Z,16.40
2023-05-21T04:29:31.756Z,16.08
2023-05-21T04:31:59.714Z,15.80
2023-05-21T04:34:27.579Z,16.88
2023-05-21T04:36:56.953Z,15.98
2023-05-21T04:39:26.013Z,15.82
2023-05-21T04:41:54.770Z,16.98
2023-05-21T04:44:24.816Z,17.90
2023-05-21T04:46:54.854Z,17.23
2023-05-21T04:49:23.077Z,16.48
2023-05-21T04:51:51.120Z,16.42
2023-05-21T04:54:19.035Z,16.77
2023-05-21T04:56:47.407Z,16.25
2023-05-21T04:59:15.958Z,17.60
2023-05-21T05:01:45.395Z,16.67
2023-05-21T05:04:13.293Z,16.77
2023-05-21T05:06:41.540Z,16.92
2023-05-21T05:09:09.734Z,16.08
2023-05-21T05:11:37.842Z,16.40
2023-05-21T05:14:06.069Z,16.42
2023-05-21T05:16:35.730Z,16.23
2023-05-21T05:19:05.194Z,14.95
2023-05-21T05:21:33.239Z,15.65
2023-05-21T05:24:01.423Z,15.70
2023-05-21T05:26:32.822Z,16.15
2023-05-21T05:29:01.333Z,16.85
2023-05-21T05:31:29.873Z,15.43
2023-05-21T05:33:58.373Z,15.02
2023-05-21T05:36:28.160Z,15.77
2023-05-21T05:38:56.025Z,16.23
2023-05-21T05:41:24.112Z,16.25
2023-05-21T05:43:52.009Z,14.95
2023-05-21T05:46:22.163Z,14.90
2023-05-21T05:48:52.019Z,15.43
2023-05-21T05:51:19.930Z,15.60
2023-05-21T05:53:49.377Z,15.25
2023-05-21T05:56:17.678Z,15.60
2023-05-21T05:58:45.930Z,14.88
2023-05-21T06:01:16.455Z,13.88
2023-05-21T06:03:45.388Z,14.57
2023-05-21T06:06:17.073Z,14.93
2023-05-21T06:08:46.305Z,14.60
2023-05-21T06:11:17.171Z,15.15
2023-05-21T06:13:45.318Z,14.60
2023-05-21T06:16:13.782Z,14.73
2023-05-21T06:18:41.763Z,14.77
2023-05-21T06:21:09.691Z,14.25
2023-05-21T06:23:37.874Z,14.65
2023-05-21T06:26:06.342Z,14.65
2023-05-21T06:28:36.264Z,13.60
2023-05-21T06:31:04.814Z,12.80
2023-05-21T06:33:34.343Z,14.30
2023-05-21T06:36:02.452Z,13.90
2023-05-21T06:38:30.773Z,13.63
2023-05-21T06:40:59.702Z,13.68
2023-05-21T06:43:45.734Z,13.60
2023-05-21T06:46:32.010Z,13.50
2023-05-21T06:49:01.024Z,12.85
2023-05-21T06:51:28.951Z,13.60
2023-05-21T06:53:57.143Z,13.18
2023-05-21T06:56:27.024Z,13.88
2023-05-21T06:58:57.549Z,14.68
2023-05-21T07:01:25.517Z,12.88
2023-05-21T07:03:54.394Z,13.98
2023-05-21T07:06:22.366Z,13.13
2023-05-21T07:08:50.678Z,13.90
2023-05-21T07:11:18.603Z,13.18
2023-05-21T07:13:47.032Z,13.93
2023-05-21T07:16:17.866Z,13.38
2023-05-21T07:18:46.826Z,13.15
2023-05-21T07:21:14.902Z,12.90
2023-05-21T07:23:42.921Z,12.45
2023-05-21T07:26:11.437Z,11.98
2023-05-21T07:28:39.346Z,12.30
2023-05-21T07:31:08.360Z,11.93
2023-05-21T07:33:42.978Z,11.45
2023-05-21T07:36:12.784Z,12.07
2023-05-21T07:38:41.401Z,10.68
2023-05-21T07:41:10.610Z,11.95
2023-05-21T07:43:40.095Z,10.80
2023-05-21T07:46:08.210Z,11.75
2023-05-21T07:48:36.261Z,10.68
2023-05-21T07:51:07.323Z,11.15
2023-05-21T07:53:35.724Z,10.55
2023-05-21T07:56:08.092Z,10.68
2023-05-21T07:58:36.196Z,11.65
2023-05-21T08:01:04.255Z,10.05
2023-05-21T08:03:33.827Z,11.50
2023-05-21T08:06:01.948Z,10.63
2023-05-21T08:08:31.383Z,9.98
2023-05-21T08:10:59.670Z,10.35
2023-05-21T08:13:29.272Z,9.45
2023-05-21T08:15:57.840Z,9.20
2023-05-21T08:18:27.342Z,9.32
2023-05-21T08:20:57.349Z,9.38
2023-05-21T08:23:27.178Z,9.15
2023-05-21T08:25:58.570Z,9.88
2023-05-21T08:28:27.581Z,9.23
2023-05-21T08:30:56.374Z,9.70
2023-05-21T08:33:25.731Z,9.27
2023-05-21T08:35:53.583Z,8.73
2023-05-21T08:38:30.469Z,8.77
2023-05-21T08:41:00.360Z,9.05
2023-05-21T08:43:29.469Z,8.52
2023-05-21T08:46:01.552Z,8.60
2023-05-21T08:48:33.594Z,9.10
2023-05-21T08:51:01.982Z,8.63
2023-05-21T08:53:34.479Z,8.70
2023-05-21T08:56:07.905Z,8.20
2023-05-21T08:58:50.144Z,8.00
2023-05-21T09:01:22.394Z,8.45
2023-05-21T09:04:04.840Z,8.00
2023-05-21T09:06:41.811Z,7.88
2023-05-21T09:09:18.736Z,7.90
2023-05-21T09:11:51.357Z,7.97
2023-05-21T09:14:20.792Z,7.50
2023-05-21T09:17:08.939Z,7.50
2023-05-21T09:19:37.053Z,7.63
2023-05-21T09:22:05.510Z,8.32
2023-05-21T09:24:36.333Z,7.93
2023-05-21T09:27:08.518Z,7.63
2023-05-21T09:29:36.987Z,8.07
2023-05-21T09:32:08.359Z,8.82
2023-05-21T09:34:40.015Z,6.85
2023-05-21T09:37:19.911Z,8.40
2023-05-21T09:39:54.571Z,7.78
2023-05-21T09:42:23.961Z,7.82
2023-05-21T09:44:53.102Z,7.60
2023-05-21T09:47:22.399Z,7.30
2023-05-21T09:49:50.979Z,7.50
2023-05-21T09:52:25.245Z,6.53
2023-05-21T09:54:54.094Z,7.20
2023-05-21T09:57:27.186Z,6.95
2023-05-21T09:59:55.241Z,8.10
2023-05-21T10:02:24.641Z,6.35
2023-05-21T10:04:54.374Z,6.47
2023-05-21T10:07:25.933Z,6.32
2023-05-21T10:09:55.221Z,6.32
2023-05-21T10:12:24.573Z,6.47
2023-05-21T10:15:01.301Z,6.30
2023-05-21T10:17:29.666Z,5.85
2023-05-21T10:19:58.068Z,5.82
2023-05-21T10:22:26.432Z,6.18
2023-05-21T10:24:54.871Z,6.22
2023-05-21T10:27:24.070Z,5.55
2023-05-21T10:29:58.073Z,6.30
2023-05-21T10:32:27.989Z,6.22
2023-05-21T10:34:56.104Z,5.93
2023-05-21T10:37:26.619Z,6.50
2023-05-21T10:39:55.231Z,5.97
2023-05-21T10:42:44.840Z,6.10
2023-05-21T10:45:18.252Z,6.65
2023-05-21T10:48:07.869Z,7.35
2023-05-21T10:50:51.281Z,6.90
2023-05-21T10:53:26.316Z,5.88
2023-05-21T10:56:09.385Z,5.68
2023-05-21T10:59:01.814Z,6.35
2023-05-21T11:01:35.622Z,5.53
2023-05-21T11:04:05.137Z,6.70
2023-05-21T11:06:36.471Z,7.70
2023-05-21T11:09:14.186Z,5.40
2023-05-21T11:11:44.011Z,6.45
2023-05-21T11:14:31.540Z,5.78
2023-05-21T11:17:01.885Z,5.97
2023-05-21T11:19:38.150Z,5.93
2023-05-21T11:22:11.679Z,9.52
2023-05-21T11:24:41.728Z,7.82
2023-05-21T11:27:09.794Z,16.92
2023-05-21T11:29:42.616Z,6.53
2023-05-21T11:32:13.504Z,10.63
2023-05-21T11:34:43.580Z,10.05
2023-05-21T11:37:27.641Z,6.78
2023-05-21T11:39:56.169Z,6.10
2023-05-21T11:42:42.525Z,6.28
2023-05-21T11:45:11.228Z,5.47
2023-05-21T11:47:41.534Z,5.13
2023-05-21T11:50:14.703Z,5.15
2023-05-21T11:55:11.338Z,5.53
2023-05-21T11:57:44.268Z,5.28
2023-05-21T12:02:52.322Z,4.80
2023-05-21T12:05:20.592Z,5.28
2023-05-21T12:07:50.457Z,4.60
2023-05-21T12:10:22.534Z,4.38
2023-05-21T12:12:56.480Z,4.72
2023-05-21T12:15:26.417Z,5.10
2023-05-21T12:17:56.978Z,4.72
2023-05-21T12:20:28.131Z,5.32
2023-05-21T12:22:57.782Z,4.55
2023-05-21T12:25:25.912Z,5.00
2023-05-21T12:27:58.500Z,4.90
2023-05-21T12:30:27.124Z,5.05
2023-05-21T12:32:59.462Z,4.70
2023-05-21T12:35:27.721Z,5.13
2023-05-21T12:37:55.835Z,5.20
2023-05-21T12:40:35.362Z,4.47
2023-05-21T12:43:03.612Z,4.65
2023-05-21T12:45:32.389Z,5.18
2023-05-21T12:48:04.089Z,5.78
2023-05-21T12:50:33.671Z,4.80
2023-05-21T12:53:01.735Z,4.72
2023-05-21T12:55:30.222Z,5.07
2023-05-21T12:58:03.316Z,5.05
2023-05-21T13:00:31.470Z,4.82
2023-05-21T13:03:00.880Z,5.05
2023-05-21T13:05:30.155Z,5.03
2023-05-21T13:07:58.009Z,5.03
2023-05-21T13:10:25.936Z,5.07
2023-05-21T13:12:53.782Z,4.65
2023-05-21T13:15:21.791Z,4.57
2023-05-21T13:17:50.898Z,4.65
2023-05-21T13:20:33.872Z,4.97
2023-05-21T13:23:05.672Z,4.97
2023-05-21T13:25:34.647Z,4.57
2023-05-21T13:28:04.545Z,4.78
2023-05-21T13:30:33.266Z,4.70
2023-05-21T13:33:01.502Z,5.10
2023-05-21T13:35:30.359Z,4.90
2023-05-21T13:37:58.187Z,4.57
2023-05-21T13:40:28.027Z,4.63
2023-05-21T13:42:56.130Z,4.88
2023-05-21T13:45:28.948Z,5.00
2023-05-21T13:47:57.302Z,4.85
2023-05-21T13:50:25.809Z,4.60
2023-05-21T13:52:53.726Z,5.13
2023-05-21T13:55:21.584Z,4.72
2023-05-21T13:57:50.982Z,4.72
2023-05-21T14:00:18.919Z,5.10
2023-05-21T14:02:47.083Z,4.68
2023-05-21T14:05:15.126Z,4.80
2023-05-21T14:07:43.257Z,4.90
2023-05-21T14:10:12.079Z,5.03
2023-05-21T14:12:40.697Z,4.50
2023-05-21T14:15:11.025Z,5.40
2023-05-21T14:17:40.202Z,5.00
2023-05-21T14:20:09.804Z,4.40
2023-05-21T14:22:37.852Z,4.90
2023-05-21T14:25:06.400Z,4.50
2023-05-21T14:27:34.509Z,4.85
2023-05-21T14:30:02.521Z,4.68
2023-05-21T14:32:32.098Z,4.28
2023-05-21T14:35:00.423Z,5.13
2023-05-21T14:37:28.290Z,4.60
2023-05-21T14:39:56.180Z,4.88
2023-05-21T14:42:24.072Z,4.43
2023-05-21T14:44:52.537Z,4.97
2023-05-21T14:47:20.486Z,4.85
2023-05-21T14:49:51.604Z,4.45
2023-05-21T14:52:19.681Z,4.57
2023-05-21T14:54:47.565Z,4.80
2023-05-21T14:57:15.559Z,4.05
2023-05-21T14:59:43.542Z,4.30
2023-05-21T15:02:11.508Z,4.57
2023-05-21T15:04:40.007Z,4.18
2023-05-21T15:07:09.231Z,4.40
2023-05-21T15:09:37.121Z,4.30
2023-05-21T15:12:05.430Z,4.35
2023-05-21T15:14:33.334Z,4.20
2023-05-21T15:17:01.234Z,4.72
2023-05-21T15:19:29.191Z,4.45
2023-05-21T15:21:57.151Z,4.25
2023-05-21T15:24:26.460Z,4.03
2023-05-21T15:26:54.361Z,4.25
2023-05-21T15:29:22.334Z,4.03
2023-05-21T15:31:50.284Z,5.00
2023-05-21T15:34:18.440Z,4.22
2023-05-21T15:36:46.388Z,4.22
2023-05-21T15:39:14.296Z,4.10
2023-05-21T15:41:43.546Z,3.95
2023-05-21T15:44:11.524Z,3.78
2023-05-21T15:46:39.454Z,4.47
2023-05-21T15:49:08.613Z,3.65
2023-05-21T15:51:36.489Z,3.85
2023-05-21T15:54:04.661Z,3.72
2023-05-21T15:56:32.545Z,4.32
2023-05-21T15:59:01.842Z,3.85
2023-05-21T16:01:29.991Z,3.58
2023-05-21T16:03:58.041Z,3.90
2023-05-21T16:06:26.171Z,4.22
2023-05-21T16:08:54.064Z,4.10
2023-05-21T16:11:22.458Z,4.03
2023-05-21T16:13:50.498Z,3.35
2023-05-21T16:16:21.271Z,3.67
2023-05-21T16:18:51.163Z,3.78
2023-05-21T16:21:19.472Z,3.65
2023-05-21T16:23:47.927Z,3.72
2023-05-21T16:26:15.905Z,3.60
2023-05-21T16:28:43.813Z,3.50
2023-05-21T16:31:12.698Z,3.67
2023-05-21T16:33:41.959Z,3.60
2023-05-21T16:36:09.955Z,4.20
2023-05-21T16:38:38.200Z,4.05
2023-05-21T16:41:06.709Z,5.13
2023-05-21T16:43:34.582Z,4.15
2023-05-21T16:46:02.660Z,3.78
2023-05-21T16:48:30.877Z,4.25
2023-05-21T16:51:00.595Z,3.40
2023-05-21T16:53:28.545Z,3.35
2023-05-21T16:55:56.594Z,3.58
2023-05-21T16:58:24.511Z,3.42
2023-05-21T17:00:52.432Z,3.58
2023-05-21T17:03:20.625Z,3.65
2023-05-21T17:05:48.715Z,3.90
2023-05-21T17:08:18.006Z,3.75
2023-05-21T17:10:46.070Z,4.07
2023-05-21T17:13:21.447Z,3.65
2023-05-21T17:15:51.172Z,3.92
2023-05-21T17:18:19.376Z,4.45
2023-05-21T17:20:47.414Z,3.78
2023-05-21T17:23:15.416Z,3.50
2023-05-21T17:25:44.902Z,3.83
2023-05-21T17:28:12.771Z,3.85
2023-05-21T17:30:40.831Z,3.50
2023-05-21T17:33:10.404Z,5.30
2023-05-21T17:35:39.147Z,6.78
2023-05-21T17:38:07.390Z,4.35
2023-05-21T17:40:35.587Z,3.40
2023-05-21T17:43:07.184Z,3.78
2023-05-21T17:45:35.307Z,4.13
2023-05-21T17:48:03.755Z,3.58
2023-05-21T17:50:31.776Z,3.85
2023-05-21T17:53:00.475Z,3.70
2023-05-21T17:55:28.437Z,4.28
2023-05-21T17:57:56.431Z,3.30
2023-05-21T18:00:25.777Z,4.00
2023-05-21T18:02:53.782Z,3.58
2023-05-21T18:05:22.754Z,3.60
2023-05-21T18:07:50.861Z,3.67
2023-05-21T18:10:18.785Z,3.45
2023-05-21T18:12:47.156Z,3.63
2023-05-21T18:15:15.642Z,3.80
2023-05-21T18:17:45.501Z,3.60
2023-05-21T18:20:14.834Z,3.85
2023-05-21T18:22:42.896Z,3.50
2023-05-21T18:25:11.493Z,3.72
2023-05-21T18:27:39.402Z,3.15
2023-05-21T18:30:08.540Z,3.53
2023-05-21T18:32:38.738Z,3.50
2023-05-21T18:35:12.003Z,3.35
2023-05-21T18:37:42.962Z,3.42
2023-05-21T18:40:12.123Z,3.65
2023-05-21T18:42:40.207Z,3.50
2023-05-21T18:45:10.092Z,3.47
2023-05-21T18:47:40.210Z,3.83
2023-05-21T18:50:12.803Z,3.47
2023-05-21T18:52:40.762Z,3.45
2023-05-21T18:55:09.721Z,3.53
2023-05-21T18:57:38.189Z,3.80
2023-05-21T19:00:09.467Z,3.30
2023-05-21T19:02:37.703Z,3.53
2023-05-21T19:05:06.352Z,3.70
2023-05-21T19:07:36.227Z,3.75
2023-05-21T19:10:04.328Z,3.42
2023-05-21T19:12:32.397Z,3.45
2023-05-21T19:15:00.308Z,3.83
2023-05-21T19:17:28.298Z,3.20
2023-05-21T19:19:56.695Z,3.90
2023-05-21T19:22:24.993Z,3.10
2023-05-21T19:24:54.664Z,3.22
2023-05-21T19:27:22.827Z,3.50
2023-05-21T19:29:51.714Z,3.30
2023-05-21T19:32:20.735Z,3.20
2023-05-21T19:34:48.672Z,3.28
2023-05-21T19:37:17.009Z,3.72
2023-05-21T19:39:49.525Z,3.47
2023-05-21T19:42:21.397Z,3.63
2023-05-21T19:44:49.454Z,3.70
2023-05-21T19:47:17.354Z,3.65
2023-05-21T19:49:45.705Z,4.00
2023-05-21T19:52:13.675Z,3.67
2023-05-21T19:54:41.680Z,3.67
2023-05-21T19:57:12.286Z,4.05
2023-05-21T19:59:41.772Z,4.00
2023-05-21T20:02:15.097Z,3.47
2023-05-21T20:04:43.009Z,3.58
2023-05-21T20:07:11.007Z,3.75
2023-05-21T20:09:39.648Z,3.63
2023-05-21T20:12:08.538Z,3.70
2023-05-21T20:14:36.427Z,3.67
2023-05-21T20:17:07.084Z,3.45
2023-05-21T20:19:35.900Z,4.53
2023-05-21T20:22:04.068Z,3.50
2023-05-21T20:24:32.113Z,3.25
2023-05-21T20:27:01.594Z,3.63
2023-05-21T20:29:29.950Z,3.25
2023-05-21T20:31:57.859Z,3.40
2023-05-21T20:34:28.076Z,3.85
2023-05-21T20:36:58.083Z,3.67
2023-05-21T20:39:27.286Z,3.85
2023-05-21T20:41:56.048Z,3.85
2023-05-21T20:44:25.879Z,3.22
2023-05-21T20:46:54.767Z,3.53
2023-05-21T20:49:24.732Z,3.75
2023-05-21T20:51:54.294Z,4.13
2023-05-21T20:54:23.243Z,3.63
2023-05-21T20:56:54.812Z,4.05
2023-05-21T20:59:22.714Z,3.83
2023-05-21T21:01:50.770Z,3.47
2023-05-21T21:04:18.930Z,3.60
2023-05-21T21:06:47.013Z,3.50
2023-05-21T21:09:16.249Z,3.75
2023-05-21T21:11:44.444Z,4.03
2023-05-21T21:14:13.669Z,3.60
2023-05-21T21:16:41.739Z,3.63
2023-05-21T21:19:09.796Z,3.55
2023-05-21T21:21:37.791Z,3.72
2023-05-21T21:24:06.736Z,3.70
2023-05-21T21:26:36.104Z,3.75
2023-05-21T21:29:04.104Z,3.90
2023-05-21T21:31:32.136Z,3.60
2023-05-21T21:34:00.022Z,3.25
2023-05-21T21:36:28.834Z,3.38
2023-05-21T21:38:56.817Z,3.58
2023-05-21T21:41:24.827Z,3.72
2023-05-21T21:43:54.073Z,4.50
2023-05-21T21:46:22.015Z,3.75
2023-05-21T21:48:49.939Z,3.80
2023-05-21T21:51:17.946Z,3.45
2023-05-21T21:53:46.093Z,3.47
2023-05-21T21:56:13.969Z,3.80
2023-05-21T21:58:41.939Z,3.78
2023-05-21T22:01:11.265Z,3.95
2023-05-21T22:03:39.185Z,3.30
2023-05-21T22:06:07.284Z,3.97
2023-05-21T22:08:35.149Z,3.58
2023-05-21T22:11:03.076Z,3.45
2023-05-21T22:13:30.959Z,3.65
2023-05-21T22:15:58.901Z,3.85
2023-05-21T22:18:40.142Z,3.78
2023-05-21T22:21:09.750Z,4.03
2023-05-21T22:23:37.830Z,3.95
2023-05-21T22:26:05.882Z,3.60
2023-05-21T22:28:33.979Z,3.05
2023-05-21T22:31:01.904Z,3.30
2023-05-21T22:33:31.289Z,3.25
2023-05-21T22:35:59.187Z,3.40
2023-05-21T22:38:27.090Z,3.50
2023-05-21T22:40:55.063Z,3.38
2023-05-21T22:43:22.983Z,3.40
2023-05-21T22:45:50.953Z,3.20
2023-05-21T22:48:21.980Z,3.25
2023-05-21T22:50:53.409Z,2.97
2023-05-21T22:53:21.752Z,3.40
2023-05-21T22:55:49.819Z,3.65
2023-05-21T22:58:18.063Z,3.20
2023-05-21T23:00:45.999Z,3.42
2023-05-21T23:03:13.891Z,3.20
2023-05-21T23:05:41.824Z,3.33
2023-05-21T23:08:11.246Z,3.47
2023-05-21T23:10:39.324Z,3.50
2023-05-21T23:13:07.507Z,3.60
2023-05-21T23:15:38.727Z,3.42
2023-05-21T23:18:07.726Z,3.03
2023-05-21T23:20:36.690Z,3.17
2023-05-21T23:23:04.982Z,3.13
2023-05-21T23:25:35.046Z,3.42
2023-05-21T23:28:02.983Z,3.42
2023-05-21T23:30:30.979Z,3.40
2023-05-21T23:32:58.954Z,3.92
2023-05-21T23:35:27.065Z,3.30
2023-05-21T23:37:55.018Z,3.30
2023-05-21T23:40:22.906Z,2.83
2023-05-21T23:42:52.388Z,3.42
2023-05-21T23:45:20.358Z,3.25
2023-05-21T23:47:48.298Z,3.55
2023-05-21T23:50:16.468Z,3.60
2023-05-21T23:52:44.704Z,3.20
2023-05-21T23:55:14.717Z,3.47
2023-05-21T23:57:42.787Z,3.42
